Time;durP1;ratioP1;P1;durP2;ratioP2;P2;SDS_P1;SDS_P2;PMS_P1;PMS_P2;Temp;Humidity;BMP_temperature;BMP_pressure;BME280_temperature;BME280_humidity;BME280_pressure;Samples;Min_cycle;Max_cycle;Signal;HPM_P1;HPM_P2
2022/01/12 00:02:09;;;;;;;5.17;3.10;;;2.80;99.90;;;;;;4988771;28;20186;-92
2022/01/12 00:04:35;;;;;;;1.53;1.43;;;2.80;99.90;;;;;;4962957;28;20214;-91
2022/01/12 00:07:00;;;;;;;1.43;1.33;;;2.80;99.90;;;;;;4949714;28;20190;-92
2022/01/12 00:09:26;;;;;;;1.20;1.10;;;2.80;99.90;;;;;;4968877;28;20190;-92
2022/01/12 00:11:52;;;;;;;1.30;1.20;;;2.80;99.90;;;;;;4960679;28;20539;-93
2022/01/12 00:14:17;;;;;;;1.10;1.00;;;2.80;99.90;;;;;;4951897;28;20358;-91
2022/01/12 00:16:47;;;;;;;3.93;3.63;;;2.80;99.90;;;;;;4947343;28;20211;-91
2022/01/12 00:19:13;;;;;;;1.97;1.27;;;2.80;99.90;;;;;;4967540;28;20217;-92
2022/01/12 00:21:38;;;;;;;2.27;2.07;;;2.80;99.90;;;;;;4963714;28;22178;-93
2022/01/12 00:24:06;;;;;;;2.60;2.20;;;2.80;99.90;;;;;;4951006;28;20190;-91
2022/01/12 00:34:28;;;;;;;0.90;0.90;;;2.80;99.90;;;;;;4974707;28;21046;-92
2022/01/12 00:36:55;;;;;;;0.80;0.80;;;2.80;99.90;;;;;;4989551;28;20437;-92
2022/01/12 00:39:20;;;;;;;0.80;0.80;;;2.80;99.90;;;;;;4979126;28;20449;-92
2022/01/12 00:41:47;;;;;;;2.87;2.03;;;2.80;99.90;;;;;;4952912;28;20444;-91
2022/01/12 00:44:22;;;;;;;1.30;1.20;;;2.80;99.90;;;;;;4975291;28;20186;-91
2022/01/12 00:46:49;;;;;;;1.90;1.47;;;2.80;99.90;;;;;;4959487;28;20449;-91
2022/01/12 00:49:14;;;;;;;0.90;0.90;;;2.80;99.90;;;;;;4974480;28;20523;-92
2022/01/12 00:51:40;;;;;;;2.30;2.10;;;2.80;99.90;;;;;;4974261;28;21021;-91
2022/01/12 00:54:08;;;;;;;0.93;0.93;;;2.80;99.90;;;;;;4971887;28;20237;-92
2022/01/12 00:56:33;;;;;;;0.80;0.80;;;2.80;99.90;;;;;;4968590;28;20186;-91
2022/01/12 00:58:59;;;;;;;1.30;1.20;;;2.80;99.90;;;;;;4954208;28;20454;-92
2022/01/12 01:01:25;;;;;;;1.37;1.27;;;2.80;99.90;;;;;;4972130;28;20194;-93
2022/01/12 01:03:51;;;;;;;1.00;0.90;;;2.80;99.90;;;;;;4965539;28;20268;-92
2022/01/12 01:06:18;;;;;;;4.30;1.17;;;2.80;99.90;;;;;;4955378;28;20560;-91
2022/01/12 01:08:52;;;;;;;3.20;3.07;;;2.80;99.90;;;;;;4970528;28;20460;-92
2022/01/12 01:11:18;;;;;;;1.47;1.37;;;2.80;99.90;;;;;;4953740;28;20452;-91
2022/01/12 01:13:55;;;;;;;0.90;0.90;;;2.80;99.90;;;;;;4953383;28;20853;-92
2022/01/12 01:16:25;;;;;;;0.70;0.70;;;2.80;99.90;;;;;;4961372;28;20441;-92
2022/01/12 01:27:20;;;;;;;0.73;0.70;;;2.80;99.90;;;;;;4967301;28;20531;-92
2022/01/12 01:29:47;;;;;;;1.90;1.63;;;2.80;99.90;;;;;;4952746;28;21107;-92
2022/01/12 01:32:13;;;;;;;0.70;0.70;;;2.90;99.90;;;;;;4981809;28;20762;-91
2022/01/12 01:34:44;;;;;;;4.10;3.80;;;2.90;99.90;;;;;;4974007;28;20563;-91
2022/01/12 01:37:10;;;;;;;2.27;2.00;;;2.90;99.90;;;;;;4971644;28;20186;-92
2022/01/12 01:39:36;;;;;;;3.77;3.47;;;2.90;99.90;;;;;;4965722;28;20979;-92
2022/01/12 01:42:07;;;;;;;1.23;1.13;;;2.90;99.90;;;;;;4967376;28;20445;-91
2022/01/12 01:53:17;;;;;;;1.07;1.07;;;2.90;99.90;;;;;;4958572;28;20766;-92
2022/01/12 01:55:40;;;;;;;3.03;2.80;;;3.00;99.90;;;;;;4961919;28;20488;-91
2022/01/12 01:58:06;;;;;;;2.67;1.50;;;2.90;99.90;;;;;;4971595;28;20512;-93
2022/01/12 02:00:33;;;;;;;0.80;0.77;;;2.90;99.90;;;;;;4989386;28;20580;-92
2022/01/12 02:03:00;;;;;;;4.87;4.47;;;3.00;99.90;;;;;;4966074;28;20494;-92
2022/01/12 02:05:26;;;;;;;0.90;0.90;;;2.90;99.90;;;;;;4977873;28;20983;-92
2022/01/12 02:07:52;;;;;;;2.13;1.37;;;2.90;99.90;;;;;;4942132;28;20453;-92
2022/01/12 02:10:18;;;;;;;1.27;1.17;;;3.00;99.90;;;;;;4977644;28;20440;-93
2022/01/12 02:12:44;;;;;;;2.00;1.80;;;3.00;99.90;;;;;;4966348;28;20196;-90
2022/01/12 02:15:25;;;;;;;1.37;1.27;;;3.00;99.90;;;;;;4973970;28;20217;-90
2022/01/12 02:36:54;;;;;;;4.87;1.40;;;3.00;99.90;;;;;;4974038;28;20429;-92
2022/01/12 02:42:04;;;;;;;1.30;1.20;;;3.10;99.90;;;;;;4964844;28;20447;-92
2022/01/12 02:55:44;;;;;;;1.20;1.13;;;3.10;99.90;;;;;;4963710;28;20842;-92
2022/01/12 02:58:09;;;;;;;1.47;1.37;;;3.10;99.90;;;;;;4968472;28;20437;-90
2022/01/12 03:00:56;;;;;;;0.83;0.83;;;3.10;99.90;;;;;;4963659;28;20709;-93
2022/01/12 03:03:23;;;;;;;1.00;1.00;;;3.20;99.90;;;;;;4965147;28;20187;-93
2022/01/12 03:06:00;;;;;;;0.70;0.60;;;3.20;99.90;;;;;;4955510;28;20456;-92
2022/01/12 03:08:27;;;;;;;1.93;1.83;;;3.20;99.90;;;;;;4969721;28;20430;-92
2022/01/12 03:10:54;;;;;;;0.70;0.70;;;3.20;99.90;;;;;;4959617;28;20442;-92
2022/01/12 03:13:21;;;;;;;0.80;0.80;;;3.20;99.90;;;;;;4946866;28;20540;-92
2022/01/12 03:15:48;;;;;;;1.00;0.90;;;3.20;99.90;;;;;;4961938;28;20976;-91
2022/01/12 03:18:15;;;;;;;0.90;0.90;;;3.20;99.90;;;;;;4958096;28;20440;-91
2022/01/12 03:20:41;;;;;;;0.80;0.80;;;3.20;99.90;;;;;;4961251;28;20488;-92
2022/01/12 03:23:07;;;;;;;3.27;3.07;;;3.20;99.90;;;;;;4978896;28;20838;-91
2022/01/12 03:25:32;;;;;;;1.40;1.30;;;3.20;99.90;;;;;;4971969;28;20474;-92
2022/01/12 03:28:01;;;;;;;0.73;0.70;;;3.20;99.90;;;;;;4967504;28;20194;-93
2022/01/12 03:30:34;;;;;;;1.77;1.10;;;3.20;99.90;;;;;;4972328;28;20208;-92
2022/01/12 03:33:17;;;;;;;0.70;0.70;;;3.20;99.90;;;;;;4945376;28;20974;-91
2022/01/12 03:36:12;;;;;;;7.03;2.20;;;3.20;99.90;;;;;;4967764;28;21037;-91
2022/01/12 03:38:37;;;;;;;2.60;2.50;;;3.30;99.90;;;;;;4967138;28;20990;-92
2022/01/12 03:41:04;;;;;;;1.90;1.80;;;3.30;99.90;;;;;;4953726;28;20502;-90
2022/01/12 03:43:29;;;;;;;2.07;1.97;;;3.30;99.90;;;;;;4970092;28;20464;-91
2022/01/12 03:45:55;;;;;;;1.00;1.00;;;3.30;99.90;;;;;;4969589;28;20201;-91
2022/01/12 03:48:21;;;;;;;1.27;1.23;;;3.30;99.90;;;;;;4969000;28;20190;-92
2022/01/12 03:50:48;;;;;;;0.70;0.70;;;3.30;99.90;;;;;;4948954;28;20805;-92
2022/01/12 03:53:14;;;;;;;1.03;0.97;;;3.30;99.90;;;;;;4953445;28;20622;-92
2022/01/12 03:55:41;;;;;;;1.03;1.03;;;3.30;99.90;;;;;;4968186;28;20516;-91
2022/01/12 03:58:10;;;;;;;0.80;0.80;;;3.30;99.90;;;;;;4949420;28;20281;-92
2022/01/12 04:00:36;;;;;;;1.03;1.00;;;3.30;99.90;;;;;;4976162;28;20452;-93
2022/01/12 04:03:04;;;;;;;1.13;1.00;;;3.30;99.90;;;;;;4952160;28;20454;-92
2022/01/12 04:08:21;;;;;;;0.73;0.73;;;3.40;99.90;;;;;;4968164;28;20447;-90
2022/01/12 04:11:00;;;;;;;13.23;3.07;;;3.40;99.90;;;;;;4964026;28;20484;-92
2022/01/12 04:13:28;;;;;;;0.70;0.70;;;3.40;99.90;;;;;;4949950;28;20445;-92
2022/01/12 04:15:57;;;;;;;0.70;0.63;;;3.40;99.90;;;;;;4961967;28;20823;-91
2022/01/12 04:18:22;;;;;;;0.70;0.70;;;3.40;99.90;;;;;;4968687;28;20441;-91
2022/01/12 04:20:50;;;;;;;0.70;0.70;;;3.40;99.90;;;;;;4963290;28;20827;-91
2022/01/12 04:23:18;;;;;;;0.70;0.67;;;3.40;99.90;;;;;;4956945;28;20189;-92
2022/01/12 04:25:56;;;;;;;2.13;1.00;;;3.40;99.90;;;;;;4955529;28;21075;-92
2022/01/12 04:28:23;;;;;;;2.30;2.20;;;3.50;99.90;;;;;;4944692;28;20965;-89
2022/01/12 04:30:50;;;;;;;1.57;1.43;;;3.50;99.90;;;;;;4960815;28;20477;-92
2022/01/12 04:33:17;;;;;;;0.70;0.60;;;3.50;99.90;;;;;;4969862;28;20945;-92
2022/01/12 04:35:48;;;;;;;1.70;1.60;;;3.50;99.90;;;;;;4973488;28;20977;-92
2022/01/12 04:38:15;;;;;;;2.03;1.90;;;3.50;99.90;;;;;;4962381;28;20506;-92
2022/01/12 04:40:41;;;;;;;2.30;2.20;;;3.50;99.90;;;;;;4970585;28;20450;-91
2022/01/12 04:43:08;;;;;;;1.43;1.33;;;3.50;99.90;;;;;;4954773;28;20448;-92
2022/01/12 04:48:08;;;;;;;1.53;1.43;;;3.60;99.90;;;;;;4967176;28;20462;-93
2022/01/12 04:50:37;;;;;;;0.70;0.60;;;3.60;99.90;;;;;;4949838;28;20516;-92
2022/01/12 04:53:04;;;;;;;0.97;0.93;;;3.60;99.90;;;;;;4970857;28;20446;-92
2022/01/12 04:55:29;;;;;;;1.50;1.40;;;3.60;99.90;;;;;;4979769;28;20510;-93
2022/01/12 04:57:55;;;;;;;0.70;0.60;;;3.60;99.90;;;;;;4960851;28;20481;-91
2022/01/12 05:00:22;;;;;;;2.83;1.00;;;3.60;99.90;;;;;;4948218;28;20867;-90
2022/01/12 05:08:37;;;;;;;0.70;0.70;;;3.70;99.90;;;;;;4962705;28;20444;-92
2022/01/12 05:13:50;;;;;;;0.70;0.70;;;3.60;99.90;;;;;;4974120;28;20508;-92
2022/01/12 05:16:16;;;;;;;1.00;1.00;;;3.60;99.90;;;;;;4952128;28;20458;-92
2022/01/12 05:18:44;;;;;;;0.93;0.90;;;3.60;99.90;;;;;;4955802;28;20801;-92
2022/01/12 05:21:10;;;;;;;0.90;0.90;;;3.60;99.90;;;;;;4954320;28;20452;-92
2022/01/12 05:23:37;;;;;;;1.83;1.73;;;3.60;99.90;;;;;;4971741;28;20446;-92
2022/01/12 05:26:03;;;;;;;0.70;0.70;;;3.50;99.90;;;;;;4989368;28;20477;-92
2022/01/12 05:28:29;;;;;;;0.70;0.70;;;3.60;99.90;;;;;;4961894;28;20445;-92
2022/01/12 05:30:56;;;;;;;0.70;0.60;;;3.60;99.90;;;;;;4983931;28;20440;-92
2022/01/12 05:33:24;;;;;;;0.70;0.70;;;3.60;99.90;;;;;;4951859;28;20441;-92
2022/01/12 05:35:51;;;;;;;0.70;0.70;;;3.60;99.90;;;;;;4986259;28;20463;-92
2022/01/12 05:38:17;;;;;;;4.10;2.13;;;3.50;99.90;;;;;;4978108;28;20563;-92
2022/01/12 05:40:46;;;;;;;1.20;1.10;;;3.50;99.90;;;;;;4965996;28;20965;-91
2022/01/12 05:43:12;;;;;;;1.63;1.27;;;3.60;99.90;;;;;;4959330;28;20273;-90
2022/01/12 05:45:40;;;;;;;0.83;0.80;;;3.50;99.90;;;;;;4971849;28;20626;-92
2022/01/12 05:50:35;;;;;;;3.63;3.43;;;3.50;99.90;;;;;;4971169;28;20453;-91
2022/01/12 05:53:03;;;;;;;2.37;1.07;;;3.60;99.90;;;;;;4984153;28;20450;-92
2022/01/12 05:55:29;;;;;;;1.53;1.43;;;3.60;99.90;;;;;;4979106;28;20494;-90
2022/01/12 05:57:55;;;;;;;0.70;0.70;;;3.50;99.90;;;;;;4968896;28;20441;-91
2022/01/12 06:00:24;;;;;;;2.13;2.03;;;3.60;99.90;;;;;;4958533;28;20194;-92
2022/01/12 06:02:49;;;;;;;1.57;1.17;;;3.60;99.90;;;;;;4967419;28;20705;-92
2022/01/12 06:05:18;;;;;;;2.63;2.53;;;3.60;99.90;;;;;;4971599;28;20457;-92
2022/01/12 06:07:44;;;;;;;0.80;0.80;;;3.60;99.90;;;;;;4975241;28;20186;-92
2022/01/12 06:10:10;;;;;;;0.80;0.80;;;3.50;99.90;;;;;;4974750;28;20454;-92
2022/01/12 06:12:36;;;;;;;0.80;0.70;;;3.50;99.90;;;;;;4955777;28;20444;-92
2022/01/12 06:15:01;;;;;;;0.80;0.80;;;3.60;99.90;;;;;;4970792;28;20312;-91
2022/01/12 06:17:27;;;;;;;0.83;0.83;;;3.60;99.90;;;;;;4950262;28;20635;-91
2022/01/12 06:19:52;;;;;;;1.10;0.90;;;3.50;99.90;;;;;;4972818;28;20190;-92
2022/01/12 06:22:18;;;;;;;0.90;0.90;;;3.50;99.90;;;;;;4955733;28;20273;-91
2022/01/12 06:24:44;;;;;;;0.80;0.70;;;3.50;99.90;;;;;;4974924;28;20198;-91
2022/01/12 06:27:13;;;;;;;1.87;1.77;;;3.50;99.90;;;;;;4964568;28;20229;-90
2022/01/12 06:30:01;;;;;;;0.73;0.73;;;3.50;99.90;;;;;;4962911;28;20212;-91
2022/01/12 06:32:27;;;;;;;0.80;0.70;;;3.50;99.90;;;;;;4984863;28;20948;-91
2022/01/12 06:34:53;;;;;;;0.80;0.70;;;3.50;99.90;;;;;;4960331;28;20497;-93
2022/01/12 06:37:19;;;;;;;1.73;1.63;;;3.50;99.90;;;;;;4968833;28;20209;-92
2022/01/12 06:39:44;;;;;;;1.60;1.27;;;3.40;99.90;;;;;;4979025;28;20543;-90
2022/01/12 06:42:10;;;;;;;0.80;0.80;;;3.40;99.90;;;;;;4970471;28;20178;-92
2022/01/12 06:44:36;;;;;;;2.50;2.40;;;3.40;99.90;;;;;;4974686;28;20185;-91
2022/01/12 06:47:03;;;;;;;2.43;1.73;;;3.40;99.90;;;;;;4974183;28;20182;-91
2022/01/12 06:49:29;;;;;;;9.90;3.63;;;3.50;99.90;;;;;;4972206;28;20552;-91
2022/01/12 06:51:55;;;;;;;2.07;1.97;;;3.50;99.90;;;;;;4962907;28;20446;-92
2022/01/12 06:54:20;;;;;;;0.90;0.90;;;3.40;99.90;;;;;;4953399;28;20224;-91
2022/01/12 06:56:46;;;;;;;2.60;2.50;;;3.40;99.90;;;;;;4978651;28;21069;-92
2022/01/12 06:59:12;;;;;;;0.90;0.90;;;3.40;99.90;;;;;;4954424;28;20189;-92
2022/01/12 07:01:38;;;;;;;1.07;0.93;;;3.40;99.90;;;;;;4955556;28;20284;-92
2022/01/12 07:04:04;;;;;;;3.33;3.13;;;3.40;99.90;;;;;;4969800;28;20456;-90
2022/01/12 07:06:29;;;;;;;0.70;0.70;;;3.40;99.90;;;;;;4959344;28;20445;-92
2022/01/12 07:08:55;;;;;;;1.67;1.37;;;3.40;99.90;;;;;;4962612;28;20209;-92
2022/01/12 07:11:21;;;;;;;1.23;1.13;;;3.40;99.90;;;;;;4971951;28;20194;-91
2022/01/12 07:13:47;;;;;;;3.50;2.07;;;3.40;99.90;;;;;;4952256;28;21797;-92
2022/01/12 07:16:12;;;;;;;2.70;1.33;;;3.30;99.90;;;;;;4957131;28;20457;-92
2022/01/12 07:18:38;;;;;;;1.20;1.10;;;3.30;99.90;;;;;;4962876;28;20321;-92
2022/01/12 07:21:04;;;;;;;1.30;1.20;;;3.20;99.90;;;;;;4957364;28;20233;-90
2022/01/12 07:23:29;;;;;;;0.80;0.70;;;3.30;99.90;;;;;;4974367;28;20421;-93
2022/01/12 07:25:55;;;;;;;0.80;0.70;;;3.30;99.90;;;;;;4972269;28;20240;-92
2022/01/12 07:28:21;;;;;;;0.73;0.70;;;3.30;99.90;;;;;;4963075;28;20193;-91
2022/01/12 07:30:47;;;;;;;1.20;1.10;;;3.30;99.90;;;;;;4973860;28;20221;-93
2022/01/12 07:33:13;;;;;;;0.97;0.97;;;3.20;99.90;;;;;;4971575;28;20453;-92
2022/01/12 07:35:40;;;;;;;0.80;0.80;;;3.20;99.90;;;;;;4972075;28;20489;-93
2022/01/12 07:38:06;;;;;;;1.30;1.20;;;3.30;99.90;;;;;;4970018;28;21205;-92
2022/01/12 07:40:33;;;;;;;0.80;0.70;;;3.30;99.90;;;;;;4973221;28;20465;-94
2022/01/12 07:42:59;;;;;;;1.80;1.10;;;3.20;99.90;;;;;;4972490;28;20192;-92
2022/01/12 07:45:24;;;;;;;1.43;1.33;;;3.20;99.90;;;;;;4969949;28;20450;-92
2022/01/12 07:47:50;;;;;;;0.80;0.70;;;3.20;99.90;;;;;;4968529;28;20194;-93
2022/01/12 07:50:16;;;;;;;2.20;1.50;;;3.20;99.90;;;;;;4971159;28;20182;-88
2022/01/12 07:52:41;;;;;;;1.10;1.10;;;3.20;99.90;;;;;;4954532;28;20182;-89
2022/01/12 07:55:07;;;;;;;0.80;0.70;;;3.10;99.90;;;;;;4967936;28;20241;-89
2022/01/12 07:57:33;;;;;;;0.80;0.70;;;3.20;99.90;;;;;;4955208;28;20186;-91
2022/01/12 07:59:59;;;;;;;0.80;0.70;;;3.20;99.90;;;;;;4973499;28;20456;-90
2022/01/12 08:02:25;;;;;;;0.70;0.60;;;3.10;99.90;;;;;;4950279;28;20462;-91
2022/01/12 08:04:51;;;;;;;0.80;0.70;;;3.10;99.90;;;;;;4967525;28;20205;-92
2022/01/12 08:07:17;;;;;;;0.70;0.70;;;3.10;99.90;;;;;;4971762;28;20220;-89
2022/01/12 08:09:43;;;;;;;0.70;0.60;;;3.20;99.90;;;;;;4977838;28;20486;-91
2022/01/12 08:12:09;;;;;;;0.80;0.80;;;3.10;99.90;;;;;;4970582;28;20437;-90
2022/01/12 08:14:36;;;;;;;2.17;2.07;;;3.10;99.90;;;;;;4945446;28;20543;-89
2022/01/12 08:17:02;;;;;;;0.90;0.90;;;3.10;99.90;;;;;;4958456;28;20536;-92
2022/01/12 08:19:29;;;;;;;1.37;1.27;;;3.10;99.90;;;;;;4934550;28;20457;-91
2022/01/12 08:22:00;;;;;;;0.73;0.70;;;3.10;99.90;;;;;;4971083;28;20998;-93
2022/01/12 08:24:26;;;;;;;1.17;1.07;;;3.10;99.90;;;;;;4947143;28;20548;-91
2022/01/12 08:26:51;;;;;;;0.77;0.70;;;3.10;99.90;;;;;;4960625;28;20988;-89
2022/01/12 08:29:17;;;;;;;0.90;0.90;;;3.10;99.90;;;;;;4946638;28;20284;-89
2022/01/12 08:31:44;;;;;;;1.70;1.57;;;3.10;99.90;;;;;;4944899;28;20193;-88
2022/01/12 08:34:11;;;;;;;1.20;1.00;;;3.20;99.90;;;;;;4961742;28;20555;-85
2022/01/12 08:36:39;;;;;;;0.97;0.93;;;3.20;99.90;;;;;;4964172;28;20972;-83
2022/01/12 08:39:08;;;;;;;0.80;0.70;;;3.20;99.90;;;;;;4965966;28;20452;-82
2022/01/12 08:41:36;;;;;;;1.17;1.10;;;3.30;99.90;;;;;;4966691;28;20453;-86
2022/01/12 08:44:02;;;;;;;0.80;0.80;;;3.20;99.90;;;;;;4947141;28;20445;-88
2022/01/12 08:46:28;;;;;;;0.73;0.70;;;3.20;99.90;;;;;;4961993;28;20445;-89
2022/01/12 08:48:53;;;;;;;4.73;3.27;;;3.20;99.90;;;;;;4968903;28;20831;-89
2022/01/12 08:51:19;;;;;;;1.23;1.13;;;3.20;99.90;;;;;;4950719;28;20204;-87
2022/01/12 08:53:45;;;;;;;4.10;2.03;;;3.10;99.90;;;;;;4965908;28;20202;-90
2022/01/12 08:56:10;;;;;;;2.13;2.03;;;3.10;99.90;;;;;;4971987;28;20204;-90
2022/01/12 08:58:37;;;;;;;0.90;0.90;;;3.20;99.90;;;;;;4953913;28;20273;-89
2022/01/12 09:01:04;;;;;;;0.70;0.70;;;3.20;99.90;;;;;;4969384;28;20189;-87
2022/01/12 09:03:33;;;;;;;0.80;0.70;;;3.20;99.90;;;;;;4955511;28;20469;-88
2022/01/12 09:05:59;;;;;;;0.90;0.90;;;3.30;99.90;;;;;;4972028;28;20467;-88
2022/01/12 09:08:25;;;;;;;1.63;1.53;;;3.30;99.90;;;;;;4967944;28;20452;-88
2022/01/12 09:10:50;;;;;;;4.80;2.73;;;3.20;99.90;;;;;;4952756;28;20445;-90
2022/01/12 09:13:16;;;;;;;0.80;0.70;;;3.30;99.90;;;;;;4964028;28;20217;-84
2022/01/12 09:15:41;;;;;;;2.07;1.97;;;3.30;99.90;;;;;;4968463;28;20225;-86
2022/01/12 09:18:07;;;;;;;1.27;1.17;;;3.30;99.90;;;;;;4970880;28;20189;-87
2022/01/12 09:20:32;;;;;;;0.90;0.90;;;3.40;99.90;;;;;;4967077;28;20205;-86
2022/01/12 09:22:58;;;;;;;0.70;0.70;;;3.40;99.90;;;;;;4965815;28;20205;-89
2022/01/12 09:25:24;;;;;;;0.70;0.70;;;3.30;99.90;;;;;;4970597;28;20200;-84
2022/01/12 09:27:50;;;;;;;0.70;0.70;;;3.40;99.90;;;;;;4958698;28;20316;-89
2022/01/12 09:30:18;;;;;;;1.20;1.10;;;3.40;99.90;;;;;;4970554;28;20190;-94
2022/01/12 09:32:44;;;;;;;0.70;0.70;;;3.40;99.90;;;;;;4955321;28;20467;-85
2022/01/12 09:35:10;;;;;;;0.77;0.70;;;3.50;99.90;;;;;;4967780;28;20485;-90
2022/01/12 09:37:36;;;;;;;1.43;1.33;;;3.40;99.90;;;;;;4968238;28;20433;-85
2022/01/12 09:40:02;;;;;;;0.70;0.70;;;3.40;99.90;;;;;;4952050;28;20464;-88
2022/01/12 09:42:28;;;;;;;0.70;0.60;;;3.40;99.90;;;;;;4948410;28;20184;-89
2022/01/12 09:44:54;;;;;;;0.70;0.60;;;3.30;99.90;;;;;;4971545;28;20444;-81
2022/01/12 09:47:20;;;;;;;1.07;0.90;;;3.40;99.90;;;;;;4961824;28;20558;-87
2022/01/12 09:49:46;;;;;;;0.70;0.70;;;3.40;99.90;;;;;;4970013;28;20445;-87
2022/01/12 09:52:13;;;;;;;0.73;0.73;;;3.40;99.90;;;;;;4929550;28;20272;-87
2022/01/12 09:54:39;;;;;;;1.17;1.10;;;3.50;99.90;;;;;;4981542;28;20480;-88
2022/01/12 09:57:06;;;;;;;0.73;0.70;;;3.50;99.90;;;;;;4969402;28;20499;-87
2022/01/12 09:59:32;;;;;;;0.70;0.60;;;3.60;99.90;;;;;;4954200;28;20461;-87
2022/01/12 10:01:58;;;;;;;1.43;0.90;;;3.70;99.90;;;;;;4958566;28;20443;-87
2022/01/12 10:04:29;;;;;;;0.70;0.67;;;3.70;99.90;;;;;;4969239;28;20194;-87
2022/01/12 10:07:04;;;;;;;0.73;0.70;;;3.80;99.90;;;;;;4952155;28;20851;-87
2022/01/12 10:09:37;;;;;;;0.80;0.77;;;3.90;99.90;;;;;;4964550;28;20444;-90
2022/01/12 10:12:05;;;;;;;0.80;0.70;;;4.10;99.90;;;;;;4973045;28;20448;-91
2022/01/12 10:15:00;;;;;;;0.97;0.90;;;4.10;99.90;;;;;;4961723;28;20460;-90
2022/01/12 10:17:44;;;;;;;0.70;0.60;;;4.20;99.90;;;;;;4958003;28;20451;-90
2022/01/12 10:20:19;;;;;;;0.73;0.60;;;4.20;99.90;;;;;;4935455;28;20455;-90
2022/01/12 10:22:56;;;;;;;0.77;0.60;;;4.20;99.90;;;;;;4968263;28;20816;-85
2022/01/12 10:25:22;;;;;;;0.80;0.73;;;4.30;99.90;;;;;;4968473;28;20515;-85
2022/01/12 10:27:48;;;;;;;0.80;0.70;;;4.30;99.90;;;;;;4964290;28;20887;-85
2022/01/12 10:30:26;;;;;;;0.80;0.70;;;4.30;99.90;;;;;;4966432;28;20454;-86
2022/01/12 10:33:06;;;;;;;0.80;0.67;;;4.30;99.90;;;;;;4969213;28;20445;-86
2022/01/12 10:35:35;;;;;;;0.90;0.80;;;4.30;99.90;;;;;;4950076;28;20488;-86
2022/01/12 10:38:09;;;;;;;0.80;0.70;;;4.30;99.90;;;;;;4966328;28;21138;-86
2022/01/12 10:40:48;;;;;;;0.80;0.70;;;4.30;99.90;;;;;;4953856;28;20448;-87
2022/01/12 10:43:32;;;;;;;0.80;0.70;;;4.40;99.90;;;;;;4957681;28;20455;-86
2022/01/12 10:45:59;;;;;;;1.03;0.93;;;4.40;99.90;;;;;;4971678;28;20449;-86
2022/01/12 10:48:31;;;;;;;0.90;0.90;;;4.40;99.90;;;;;;4966337;28;20799;-86
2022/01/12 10:50:59;;;;;;;0.80;0.60;;;4.30;99.90;;;;;;4962572;28;20464;-85
2022/01/12 10:53:33;;;;;;;0.80;0.70;;;4.30;99.90;;;;;;4967973;28;20961;-86
2022/01/12 10:56:17;;;;;;;1.37;1.27;;;4.30;99.90;;;;;;4969541;28;20465;-87
2022/01/12 10:58:45;;;;;;;0.93;0.93;;;4.50;99.90;;;;;;4960142;28;20437;-86
2022/01/12 11:01:12;;;;;;;0.80;0.70;;;4.60;99.90;;;;;;4951523;28;20459;-86
2022/01/12 11:03:39;;;;;;;1.80;1.70;;;4.70;99.90;;;;;;4959655;28;20441;-86
2022/01/12 11:06:07;;;;;;;1.00;0.90;;;4.70;99.90;;;;;;4959381;28;20445;-87
2022/01/12 11:08:35;;;;;;;0.80;0.70;;;4.70;99.90;;;;;;4967724;28;20926;-87
2022/01/12 11:11:01;;;;;;;0.70;0.60;;;4.70;99.90;;;;;;4943662;28;20513;-86
2022/01/12 11:13:28;;;;;;;1.20;1.00;;;4.70;99.90;;;;;;4963262;28;20441;-86
2022/01/12 11:15:56;;;;;;;0.70;0.60;;;4.70;99.90;;;;;;4944335;28;20849;-86
2022/01/12 11:18:27;;;;;;;0.70;0.60;;;4.60;99.90;;;;;;4978277;28;20442;-86
2022/01/12 11:21:00;;;;;;;0.80;0.70;;;4.70;99.90;;;;;;4946529;28;20453;-87
2022/01/12 11:23:39;;;;;;;0.80;0.70;;;4.80;99.90;;;;;;4963351;28;20528;-85
2022/01/12 11:26:26;;;;;;;1.10;1.00;;;4.80;99.90;;;;;;4974848;28;20472;-86
2022/01/12 11:28:53;;;;;;;0.77;0.70;;;4.80;99.90;;;;;;4944445;28;20871;-87
2022/01/12 11:31:38;;;;;;;0.80;0.70;;;5.00;99.90;;;;;;4961588;28;20588;-87
2022/01/12 11:34:03;;;;;;;0.70;0.60;;;5.10;99.90;;;;;;4982670;28;20511;-86
2022/01/12 11:36:40;;;;;;;1.10;1.10;;;5.10;99.90;;;;;;4971872;28;20465;-87
2022/01/12 11:39:08;;;;;;;0.80;0.70;;;5.10;99.90;;;;;;4969686;28;20228;-86
2022/01/12 11:41:40;;;;;;;0.80;0.70;;;5.20;99.90;;;;;;4974701;28;20455;-87
2022/01/12 11:44:16;;;;;;;0.80;0.70;;;5.20;99.90;;;;;;4955662;28;20446;-86
2022/01/12 11:46:50;;;;;;;1.37;1.27;;;5.20;99.90;;;;;;4968757;28;20438;-85
2022/01/12 11:49:32;;;;;;;0.80;0.67;;;5.20;99.90;;;;;;4962768;28;20456;-85
2022/01/12 11:52:04;;;;;;;0.80;0.60;;;5.30;99.90;;;;;;4952870;28;20968;-86
2022/01/12 11:54:36;;;;;;;0.80;0.60;;;5.30;99.90;;;;;;4967544;28;20468;-86
2022/01/12 11:57:04;;;;;;;1.83;1.73;;;5.30;99.90;;;;;;4948294;28;20947;-86
2022/01/12 11:59:49;;;;;;;0.87;0.80;;;5.30;99.90;;;;;;4951430;28;20438;-87
2022/01/12 12:02:15;;;;;;;0.77;0.60;;;5.40;99.90;;;;;;4945187;28;20453;-87
2022/01/12 12:04:53;;;;;;;0.80;0.70;;;5.40;99.90;;;;;;4960200;28;20451;-86
2022/01/12 12:07:19;;;;;;;0.80;0.60;;;5.40;99.90;;;;;;4968479;28;20441;-85
2022/01/12 12:09:53;;;;;;;1.90;1.30;;;5.50;99.90;;;;;;4948615;28;20972;-86
2022/01/12 12:12:23;;;;;;;0.80;0.60;;;5.50;99.90;;;;;;4942538;28;20186;-86
2022/01/12 12:14:55;;;;;;;2.30;1.37;;;5.60;99.90;;;;;;4969054;28;20539;-86
2022/01/12 12:17:23;;;;;;;2.30;2.10;;;5.50;99.90;;;;;;4954955;28;20438;-86
2022/01/12 12:19:49;;;;;;;0.80;0.60;;;5.50;99.90;;;;;;4957360;28;20444;-86
2022/01/12 12:22:25;;;;;;;1.00;1.00;;;5.60;99.90;;;;;;4963220;28;20438;-86
2022/01/12 12:24:59;;;;;;;0.80;0.70;;;5.60;99.90;;;;;;4968646;28;20468;-85
2022/01/12 12:27:27;;;;;;;1.00;0.90;;;5.60;99.90;;;;;;4951418;28;20472;-86
2022/01/12 12:29:53;;;;;;;0.80;0.70;;;5.70;99.90;;;;;;4957479;28;20861;-85
2022/01/12 12:32:33;;;;;;;0.70;0.60;;;5.80;99.90;;;;;;4977236;28;20433;-85
2022/01/12 12:35:02;;;;;;;1.93;1.83;;;5.80;99.90;;;;;;4943672;28;20486;-86
2022/01/12 12:37:38;;;;;;;0.70;0.60;;;5.90;99.90;;;;;;4947812;28;20516;-85
2022/01/12 12:40:23;;;;;;;0.90;0.90;;;6.00;99.90;;;;;;4968096;28;20449;-85
2022/01/12 12:43:21;;;;;;;0.80;0.60;;;6.60;99.90;;;;;;4953486;28;20448;-85
2022/01/12 12:46:09;;;;;;;0.80;0.60;;;7.00;99.90;;;;;;4961989;28;20528;-84
2022/01/12 12:48:36;;;;;;;0.80;0.60;;;7.90;99.90;;;;;;4962370;28;20473;-83
2022/01/12 12:51:12;;;;;;;1.30;0.90;;;8.30;99.90;;;;;;4949086;28;20888;-83
2022/01/12 12:53:44;;;;;;;0.80;0.60;;;9.10;99.90;;;;;;4954673;28;20441;-84
2022/01/12 12:56:14;;;;;;;0.80;0.60;;;9.40;99.90;;;;;;4955499;28;20476;-85
2022/01/12 12:58:39;;;;;;;1.20;0.93;;;9.90;99.90;;;;;;4950761;28;20809;-86
2022/01/12 13:01:13;;;;;;;0.80;0.60;;;9.40;99.90;;;;;;4954518;28;20444;-88
2022/01/12 13:03:48;;;;;;;0.80;0.60;;;9.20;99.90;;;;;;4958538;28;20186;-87
2022/01/12 13:06:26;;;;;;;0.80;0.60;;;9.10;99.90;;;;;;4965210;28;20510;-89
2022/01/12 13:08:54;;;;;;;1.47;0.70;;;8.60;99.90;;;;;;4951501;28;20457;-90
2022/01/12 13:11:26;;;;;;;1.00;0.90;;;8.10;99.90;;;;;;4970274;28;20433;-91
2022/01/12 13:13:57;;;;;;;0.80;0.60;;;8.00;99.90;;;;;;4949022;28;20469;-90
2022/01/12 13:16:24;;;;;;;1.23;0.97;;;7.60;99.90;;;;;;4958340;28;20935;-88
2022/01/12 13:18:50;;;;;;;0.90;0.80;;;7.80;99.90;;;;;;4950217;28;20553;-90
2022/01/12 13:21:17;;;;;;;0.80;0.60;;;8.20;99.90;;;;;;4965196;28;20452;-90
2022/01/12 13:23:49;;;;;;;0.80;0.60;;;9.00;99.90;;;;;;4971608;28;20197;-86
2022/01/12 13:26:16;;;;;;;0.80;0.60;;;8.90;99.90;;;;;;4970134;28;20504;-87
2022/01/12 13:28:45;;;;;;;0.80;0.60;;;9.00;99.90;;;;;;4969520;28;20445;-91
2022/01/12 13:31:14;;;;;;;0.80;0.60;;;8.40;99.90;;;;;;4976279;28;20457;-91
2022/01/12 13:33:42;;;;;;;1.40;0.80;;;8.50;99.90;;;;;;4975016;28;20433;-91
2022/01/12 13:36:16;;;;;;;1.00;0.90;;;8.20;99.90;;;;;;4971391;28;20488;-90
2022/01/12 13:38:46;;;;;;;0.90;0.60;;;7.80;99.90;;;;;;4963010;28;20805;-89
2022/01/12 13:41:15;;;;;;;0.90;0.60;;;7.50;99.90;;;;;;4953936;28;20656;-89
2022/01/12 13:43:45;;;;;;;0.90;0.67;;;7.20;99.90;;;;;;4972376;28;20451;-89
2022/01/12 13:46:13;;;;;;;0.87;0.70;;;7.10;99.90;;;;;;4968305;28;20460;-87
2022/01/12 13:48:52;;;;;;;0.80;0.70;;;7.20;99.90;;;;;;4971639;28;20454;-88
2022/01/12 13:51:26;;;;;;;0.80;0.60;;;7.80;99.90;;;;;;4957383;28;20807;-87
2022/01/12 13:54:02;;;;;;;0.80;0.70;;;8.10;99.90;;;;;;4947342;28;20958;-87
2022/01/12 13:56:43;;;;;;;1.03;0.93;;;7.80;99.90;;;;;;4956209;28;20464;-88
2022/01/12 13:59:10;;;;;;;1.17;0.90;;;7.50;99.90;;;;;;4952911;28;20945;-88
2022/01/12 14:01:38;;;;;;;0.80;0.60;;;7.40;99.90;;;;;;4973489;28;20461;-88
2022/01/12 14:04:17;;;;;;;0.80;0.60;;;7.20;99.90;;;;;;4972284;28;21933;-88
2022/01/12 14:06:47;;;;;;;0.80;0.70;;;7.20;99.90;;;;;;4973608;28;20421;-89
2022/01/12 14:09:23;;;;;;;0.80;0.60;;;7.20;99.90;;;;;;4960241;28;20524;-88
2022/01/12 14:11:50;;;;;;;0.80;0.70;;;7.10;99.90;;;;;;4967474;28;20485;-89
2022/01/12 14:14:17;;;;;;;1.00;0.90;;;7.00;99.90;;;;;;4954631;28;20481;-88
2022/01/12 14:16:42;;;;;;;0.80;0.70;;;7.00;99.90;;;;;;4970910;28;20425;-88
2022/01/12 14:19:09;;;;;;;0.80;0.70;;;6.90;99.90;;;;;;4943326;28;20458;-89
2022/01/12 14:21:36;;;;;;;1.67;0.90;;;6.90;99.90;;;;;;4950536;28;20201;-89